createdAt,value
2019-06-08T00:00:23.714Z,99.90
2019-06-08T00:02:53.028Z,99.90
2019-06-08T00:05:23.100Z,99.90
2019-06-08T00:07:52.623Z,99.90
2019-06-08T00:10:25.210Z,99.90
2019-06-08T00:12:52.981Z,99.90
2019-06-08T00:15:22.407Z,99.90
2019-06-08T00:17:51.799Z,99.90
2019-06-08T00:20:21.863Z,99.90
2019-06-08T00:22:51.304Z,99.90
2019-06-08T00:25:22.434Z,99.90
2019-06-08T00:27:52.251Z,99.90
2019-06-08T00:30:21.959Z,99.90
2019-06-08T00:32:51.470Z,99.90
2019-06-08T00:35:21.151Z,99.90
2019-06-08T00:37:50.515Z,99.90
2019-06-08T00:40:21.101Z,99.90
2019-06-08T00:42:50.664Z,99.90
2019-06-08T00:45:21.579Z,99.90
2019-06-08T00:47:51.147Z,99.90
2019-06-08T00:50:21.137Z,99.90
2019-06-08T00:52:50.873Z,99.90
2019-06-08T00:55:21.739Z,99.90
2019-06-08T00:57:51.427Z,99.90
2019-06-08T01:00:22.416Z,99.90
2019-06-08T01:02:52.383Z,99.90
2019-06-08T01:05:21.964Z,99.90
2019-06-08T01:07:51.447Z,99.90
2019-06-08T01:10:21.349Z,99.90
2019-06-08T01:12:50.808Z,99.90
2019-06-08T01:15:27.739Z,99.90
2019-06-08T01:18:02.224Z,99.90
2019-06-08T01:20:23.540Z,99.90
2019-06-08T01:22:53.070Z,99.90
2019-06-08T01:25:23.609Z,99.90
2019-06-08T01:27:53.195Z,99.90
2019-06-08T01:30:24.192Z,99.90
2019-06-08T01:32:53.839Z,99.90
2019-06-08T01:35:24.823Z,99.90
2019-06-08T01:37:54.667Z,99.90
2019-06-08T01:40:25.370Z,99.90
2019-06-08T01:42:54.993Z,99.90
2019-06-08T01:45:32.436Z,99.90
2019-06-08T01:48:18.800Z,99.90
2019-06-08T01:50:34.279Z,99.90
2019-06-08T01:53:03.814Z,99.90
2019-06-08T01:55:33.341Z,99.90
2019-06-08T01:58:02.871Z,99.90
2019-06-08T02:00:39.469Z,99.90
2019-06-08T02:03:03.653Z,99.90
2019-06-08T02:05:34.421Z,99.90
2019-06-08T02:08:04.114Z,99.90
2019-06-08T02:10:33.392Z,99.90
2019-06-08T02:13:03.119Z,99.90
2019-06-08T02:15:35.379Z,99.90
2019-06-08T02:18:05.112Z,99.90
2019-06-08T02:20:35.231Z,99.90
2019-06-08T02:23:05.055Z,99.90
2019-06-08T02:25:35.707Z,99.90
2019-06-08T02:28:05.405Z,99.90
2019-06-08T02:30:38.586Z,99.90
2019-06-08T02:33:06.560Z,99.90
2019-06-08T02:35:37.825Z,99.90
2019-06-08T02:38:07.636Z,99.90
2019-06-08T02:40:37.351Z,99.90
2019-06-08T02:43:07.296Z,99.90
2019-06-08T02:45:38.962Z,99.90
2019-06-08T02:48:08.632Z,99.90
2019-06-08T02:50:57.097Z,99.90
2019-06-08T02:53:29.491Z,99.90
2019-06-08T02:55:58.931Z,99.90
2019-06-08T02:58:29.221Z,99.90
2019-06-08T03:00:58.814Z,99.90
2019-06-08T03:03:31.591Z,99.90
2019-06-08T03:06:03.110Z,99.90
2019-06-08T03:08:39.301Z,99.90
2019-06-08T03:11:08.115Z,99.90
2019-06-08T03:13:38.431Z,99.90
2019-06-08T03:16:08.320Z,99.90
2019-06-08T03:18:38.273Z,99.90
2019-06-08T03:21:08.559Z,99.90
2019-06-08T03:23:38.798Z,99.90
2019-06-08T03:26:08.709Z,99.90
2019-06-08T03:28:39.981Z,99.90
2019-06-08T03:31:09.099Z,99.90
2019-06-08T03:33:46.185Z,99.90
2019-06-08T03:36:09.328Z,99.90
2019-06-08T03:38:40.167Z,99.90
2019-06-08T03:41:09.578Z,99.90
2019-06-08T03:43:40.753Z,99.90
2019-06-08T03:46:09.804Z,99.90
2019-06-08T03:48:40.077Z,99.90
2019-06-08T03:51:09.986Z,99.90
2019-06-08T03:53:40.066Z,99.90
2019-06-08T03:56:09.860Z,99.90
2019-06-08T03:58:40.562Z,99.90
2019-06-08T04:01:15.405Z,99.90
2019-06-08T04:03:46.238Z,99.90
2019-06-08T04:06:15.719Z,99.90
2019-06-08T04:08:47.251Z,99.90
2019-06-08T04:11:16.046Z,99.90
2019-06-08T04:13:47.165Z,99.90
2019-06-08T04:16:16.268Z,99.90
2019-06-08T04:18:46.842Z,99.90
2019-06-08T04:21:16.356Z,99.90
2019-06-08T04:23:47.111Z,99.90
2019-06-08T04:26:16.586Z,99.90
2019-06-08T04:28:47.385Z,99.90
2019-06-08T04:31:16.867Z,99.90
2019-06-08T04:33:46.627Z,99.90
2019-06-08T04:36:16.148Z,99.90
2019-06-08T04:38:46.205Z,99.90
2019-06-08T04:41:16.477Z,99.90
2019-06-08T04:43:47.298Z,99.90
2019-06-08T04:46:16.635Z,99.90
2019-06-08T04:48:47.410Z,99.90
2019-06-08T04:51:16.855Z,99.90
2019-06-08T04:53:47.240Z,99.90
2019-06-08T04:56:16.996Z,99.90
2019-06-08T04:58:48.337Z,99.90
2019-06-08T05:01:17.310Z,99.90
2019-06-08T05:03:47.678Z,99.90
2019-06-08T05:06:17.595Z,99.90
2019-06-08T05:08:47.331Z,99.90
2019-06-08T05:11:16.813Z,99.90
2019-06-08T05:13:47.634Z,99.90
2019-06-08T05:16:17.009Z,99.90
2019-06-08T05:18:47.365Z,99.90
2019-06-08T05:21:16.699Z,99.90
2019-06-08T05:23:47.888Z,99.90
2019-06-08T05:26:17.048Z,99.90
2019-06-08T05:28:47.305Z,99.90
2019-06-08T05:31:16.748Z,99.90
2019-06-08T05:33:46.013Z,99.90
2019-06-08T05:36:15.274Z,99.90
2019-06-08T05:38:45.700Z,99.90
2019-06-08T05:41:15.045Z,99.90
2019-06-08T05:43:45.547Z,99.90
2019-06-08T05:46:14.967Z,99.90
2019-06-08T05:48:44.329Z,99.90
2019-06-08T05:51:14.982Z,99.90
2019-06-08T05:53:44.240Z,99.90
2019-06-08T05:56:13.503Z,99.90
2019-06-08T05:58:43.910Z,99.90
2019-06-08T06:01:13.491Z,99.90
2019-06-08T06:03:44.529Z,99.90
2019-06-08T06:06:13.892Z,99.90
2019-06-08T06:08:43.085Z,99.90
2019-06-08T06:11:12.396Z,99.90
2019-06-08T06:13:42.692Z,99.90
2019-06-08T06:16:12.079Z,99.90
2019-06-08T06:18:41.307Z,99.90
2019-06-08T06:21:12.279Z,99.90
2019-06-08T06:23:41.568Z,99.90
2019-06-08T06:26:10.833Z,99.90
2019-06-08T06:28:41.300Z,99.90
2019-06-08T06:31:10.687Z,99.90
2019-06-08T06:33:39.915Z,99.90
2019-06-08T06:36:09.159Z,99.90
2019-06-08T06:38:38.472Z,99.90
2019-06-08T06:41:07.754Z,99.90
2019-06-08T06:43:37.127Z,99.90
2019-06-08T06:46:06.309Z,99.90
2019-06-08T06:48:35.604Z,99.90
2019-06-08T06:51:04.910Z,99.90
2019-06-08T06:53:34.319Z,99.90
2019-06-08T06:56:03.608Z,99.90
2019-06-08T06:58:32.977Z,99.90
2019-06-08T07:01:02.213Z,99.90
2019-06-08T07:03:31.616Z,99.90
2019-06-08T07:06:00.850Z,99.90
2019-06-08T07:08:30.147Z,99.90
2019-06-08T07:10:59.397Z,99.90
2019-06-08T07:13:28.647Z,99.90
2019-06-08T07:15:58.356Z,99.90
2019-06-08T07:18:27.753Z,99.90
2019-06-08T07:20:56.995Z,99.90
2019-06-08T07:23:26.310Z,99.90
2019-06-08T07:25:55.567Z,99.90
2019-06-08T07:28:25.147Z,99.90
2019-06-08T07:30:54.914Z,99.90
2019-06-08T07:33:24.267Z,99.90
2019-06-08T07:35:53.472Z,99.90
2019-06-08T07:38:22.786Z,99.90
2019-06-08T07:40:52.087Z,99.90
2019-06-08T07:43:21.372Z,99.90
2019-06-08T07:45:51.860Z,99.90
2019-06-08T07:48:21.328Z,99.90
2019-06-08T07:50:50.591Z,99.90
2019-06-08T07:53:27.888Z,99.90
2019-06-08T07:55:57.283Z,99.90
2019-06-08T07:58:26.575Z,99.90
2019-06-08T08:01:03.658Z,99.90
2019-06-08T08:03:26.880Z,99.90
2019-06-08T08:05:56.741Z,99.90
2019-06-08T08:08:26.190Z,99.90
2019-06-08T08:10:56.620Z,99.90
2019-06-08T08:13:26.131Z,99.90
2019-06-08T08:15:58.586Z,99.90
2019-06-08T08:18:26.297Z,99.90
2019-06-08T08:20:58.070Z,99.90
2019-06-08T08:23:27.409Z,99.90
2019-06-08T08:26:00.263Z,99.90
2019-06-08T08:28:28.026Z,99.90
2019-06-08T08:30:59.983Z,99.90
2019-06-08T08:33:28.299Z,99.90
2019-06-08T08:35:59.801Z,99.90
2019-06-08T08:38:28.856Z,99.90
2019-06-08T08:41:06.162Z,99.90
2019-06-08T08:43:29.012Z,99.90
2019-06-08T08:45:59.167Z,99.90
2019-06-08T08:48:31.696Z,99.90
2019-06-08T08:51:03.609Z,99.90
2019-06-08T08:53:32.858Z,99.90
2019-06-08T08:56:02.643Z,99.90
2019-06-08T08:58:32.169Z,99.90
2019-06-08T09:01:03.649Z,99.90
2019-06-08T09:03:33.664Z,99.90
2019-06-08T09:06:04.006Z,99.90
2019-06-08T09:08:33.411Z,99.90
2019-06-08T09:11:03.736Z,99.90
2019-06-08T09:13:33.520Z,99.90
2019-06-08T09:16:04.181Z,99.90
2019-06-08T09:18:33.803Z,99.90
2019-06-08T09:21:04.297Z,99.90
2019-06-08T09:23:33.785Z,99.90
2019-06-08T09:26:09.047Z,99.90
2019-06-08T09:28:34.240Z,99.90
2019-06-08T09:31:04.141Z,99.90
2019-06-08T09:33:33.552Z,99.90
2019-06-08T09:36:04.823Z,99.90
2019-06-08T09:38:33.896Z,99.90
2019-06-08T09:41:05.135Z,99.90
2019-06-08T09:43:34.098Z,99.90
2019-06-08T09:46:05.277Z,99.90
2019-06-08T09:48:34.551Z,99.90
2019-06-08T09:51:05.448Z,99.90
2019-06-08T09:53:40.554Z,99.90
2019-06-08T09:56:09.036Z,99.90
2019-06-08T09:58:38.911Z,99.90
2019-06-08T10:01:09.171Z,99.90
2019-06-08T10:03:39.441Z,99.90
2019-06-08T10:06:12.144Z,99.90
2019-06-08T10:08:39.645Z,99.90
2019-06-08T10:11:09.619Z,99.90
2019-06-08T10:13:42.958Z,99.90
2019-06-08T10:16:10.755Z,99.90
2019-06-08T10:18:40.388Z,99.90
2019-06-08T10:21:09.907Z,99.90
2019-06-08T10:23:41.754Z,99.90
2019-06-08T10:26:10.548Z,99.90
2019-06-08T10:28:39.893Z,99.90
2019-06-08T10:31:09.237Z,99.90
2019-06-08T10:33:40.716Z,99.90
2019-06-08T10:36:12.774Z,99.90
2019-06-08T10:38:41.174Z,99.90
2019-06-08T10:41:17.470Z,99.90
2019-06-08T10:43:41.849Z,99.90
2019-06-08T10:46:16.667Z,99.90
2019-06-08T10:48:42.116Z,99.90
2019-06-08T10:51:13.515Z,99.90
2019-06-08T10:53:49.154Z,99.90
2019-06-08T10:56:14.682Z,99.90
2019-06-08T10:58:43.993Z,99.90
2019-06-08T11:01:13.640Z,99.90
2019-06-08T11:03:43.249Z,99.90
2019-06-08T11:06:13.313Z,99.90
2019-06-08T11:08:42.754Z,99.90
2019-06-08T11:11:12.145Z,99.90
2019-06-08T11:13:41.429Z,99.90
2019-06-08T11:16:13.457Z,99.90
2019-06-08T11:18:41.689Z,99.90
2019-06-08T11:21:12.886Z,99.90
2019-06-08T11:23:41.963Z,99.90
2019-06-08T11:26:19.869Z,99.90
2019-06-08T11:28:42.179Z,99.90
2019-06-08T11:31:15.704Z,99.90
2019-06-08T11:33:42.468Z,99.90
2019-06-08T11:36:14.629Z,99.90
2019-06-08T11:38:42.667Z,99.90
2019-06-08T11:41:13.618Z,99.90
2019-06-08T11:43:42.831Z,99.90
2019-06-08T11:46:12.101Z,99.90
2019-06-08T11:48:41.628Z,99.90
2019-06-08T11:51:13.055Z,99.90
2019-06-08T11:53:42.063Z,99.90
2019-06-08T11:56:13.322Z,99.90
2019-06-08T11:58:43.104Z,99.90
2019-06-08T12:01:15.089Z,99.90
2019-06-08T12:03:43.371Z,99.90
2019-06-08T12:06:14.346Z,99.90
2019-06-08T12:08:43.458Z,99.90
2019-06-08T12:11:18.822Z,99.80
2019-06-08T12:13:43.587Z,99.10
2019-06-08T12:16:15.705Z,98.10
2019-06-08T12:18:44.150Z,96.90
2019-06-08T12:21:14.564Z,97.40
2019-06-08T12:23:44.476Z,97.20
2019-06-08T12:26:14.504Z,97.70
2019-06-08T12:28:44.074Z,98.30
2019-06-08T12:31:18.565Z,98.00
2019-06-08T12:33:44.369Z,98.10
2019-06-08T12:36:15.559Z,95.60
2019-06-08T12:38:44.684Z,97.40
2019-06-08T12:41:14.427Z,96.40
2019-06-08T12:43:45.032Z,95.30
2019-06-08T12:46:15.129Z,96.00
2019-06-08T12:48:45.268Z,95.90
2019-06-08T12:51:15.204Z,95.40
2019-06-08T12:53:45.507Z,95.20
2019-06-08T12:56:14.848Z,93.20
2019-06-08T12:58:47.408Z,94.10
2019-06-08T13:01:16.591Z,95.70
2019-06-08T13:03:48.298Z,95.40
2019-06-08T13:06:18.303Z,94.70
2019-06-08T13:08:47.924Z,93.20
2019-06-08T13:11:18.899Z,92.60
2019-06-08T13:13:48.882Z,92.90
2019-06-08T13:16:23.785Z,92.90
2019-06-08T13:18:49.319Z,93.00
2019-06-08T13:21:33.388Z,93.20
2019-06-08T13:23:49.623Z,93.60
2019-06-08T13:26:24.744Z,93.80
2019-06-08T13:28:49.938Z,93.40
2019-06-08T13:31:24.135Z,92.90
2019-06-08T13:33:50.180Z,92.60
2019-06-08T13:36:25.747Z,92.50
2019-06-08T13:38:50.366Z,92.00
2019-06-08T13:41:24.958Z,92.20
2019-06-08T13:43:50.653Z,90.80
2019-06-08T13:46:22.379Z,87.90
2019-06-08T13:48:50.848Z,87.10
2019-06-08T13:51:22.452Z,85.30
2019-06-08T13:53:51.025Z,86.20
2019-06-08T13:56:21.969Z,86.70
2019-06-08T13:58:51.460Z,88.00
2019-06-08T14:01:21.696Z,87.60
2019-06-08T14:03:52.572Z,88.40
2019-06-08T14:06:23.324Z,87.00
2019-06-08T14:08:52.784Z,85.60
2019-06-08T14:11:23.728Z,88.50
2019-06-08T14:13:53.483Z,84.50
2019-06-08T14:16:24.620Z,86.50
2019-06-08T14:18:53.667Z,83.20
2019-06-08T14:21:32.028Z,82.00
2019-06-08T14:23:53.744Z,83.40
2019-06-08T14:26:24.344Z,82.80
2019-06-08T14:28:54.102Z,83.90
2019-06-08T14:31:23.945Z,84.40
2019-06-08T14:33:54.239Z,87.10
2019-06-08T14:36:24.802Z,83.40
2019-06-08T14:38:54.476Z,82.60
2019-06-08T14:41:24.614Z,84.80
2019-06-08T14:43:54.001Z,80.70
2019-06-08T14:46:24.397Z,79.70
2019-06-08T14:48:53.660Z,77.60
2019-06-08T14:51:27.641Z,77.50
2019-06-08T14:53:58.251Z,76.20
2019-06-08T14:56:29.677Z,80.40
2019-06-08T14:59:00.399Z,79.60
2019-06-08T15:01:31.200Z,79.10
2019-06-08T15:04:00.127Z,79.70
2019-06-08T15:06:33.925Z,78.20
2019-06-08T15:09:00.364Z,79.40
2019-06-08T15:11:34.765Z,79.50
2019-06-08T15:14:00.600Z,81.60
2019-06-08T15:16:31.108Z,81.50
2019-06-08T15:19:00.818Z,78.20
2019-06-08T15:21:32.897Z,80.10
2019-06-08T15:24:01.125Z,78.20
2019-06-08T15:26:38.424Z,79.00
2019-06-08T15:29:01.347Z,80.50
2019-06-08T15:31:31.532Z,80.30
2019-06-08T15:34:01.670Z,80.70
2019-06-08T15:36:32.183Z,80.80
2019-06-08T15:39:01.882Z,82.70
2019-06-08T15:41:31.628Z,82.30
2019-06-08T15:44:01.943Z,81.30
2019-06-08T15:46:32.497Z,80.90
2019-06-08T15:49:01.903Z,82.10
2019-06-08T15:51:37.256Z,81.50
2019-06-08T15:54:02.298Z,83.20
2019-06-08T15:56:41.785Z,83.30
2019-06-08T15:59:02.499Z,80.40
2019-06-08T16:01:31.816Z,77.40
2019-06-08T16:04:03.953Z,78.80
2019-06-08T16:06:31.891Z,77.00
2019-06-08T16:09:01.047Z,77.60
2019-06-08T16:11:30.305Z,77.90
2019-06-08T16:13:59.574Z,76.90
2019-06-08T16:16:29.140Z,76.60
2019-06-08T16:18:58.450Z,76.80
2019-06-08T16:21:27.700Z,75.60
2019-06-08T16:23:57.355Z,75.10
2019-06-08T16:26:27.765Z,76.00
2019-06-08T16:28:57.159Z,76.60
2019-06-08T16:31:26.983Z,78.00
2019-06-08T16:33:56.719Z,75.30
2019-06-08T16:36:27.279Z,73.30
2019-06-08T16:38:56.636Z,72.80
2019-06-08T16:41:25.869Z,72.70
2019-06-08T16:43:55.083Z,71.20
2019-06-08T16:46:24.392Z,69.40
2019-06-08T16:48:53.683Z,72.30
2019-06-08T16:51:22.867Z,69.10
2019-06-08T16:53:52.179Z,71.60
2019-06-08T16:56:21.482Z,70.00
2019-06-08T16:58:50.643Z,70.70
2019-06-08T17:01:19.980Z,73.10
2019-06-08T17:03:49.307Z,72.80
2019-06-08T17:06:18.569Z,72.80
2019-06-08T17:08:47.888Z,77.20
2019-06-08T17:11:17.187Z,78.40
2019-06-08T17:13:46.556Z,80.80
2019-06-08T17:16:15.873Z,81.30
2019-06-08T17:18:45.155Z,82.10
2019-06-08T17:21:14.354Z,78.30
2019-06-08T17:23:43.599Z,78.00
2019-06-08T17:26:12.794Z,78.70
2019-06-08T17:28:42.092Z,78.70
2019-06-08T17:31:11.240Z,80.10
2019-06-08T17:33:41.497Z,80.50
2019-06-08T17:36:10.917Z,80.40
2019-06-08T17:38:41.392Z,79.70
2019-06-08T17:41:10.788Z,78.10
2019-06-08T17:43:40.314Z,79.30
2019-06-08T17:46:09.760Z,77.30
2019-06-08T17:48:39.036Z,77.10
2019-06-08T17:51:08.246Z,76.50
2019-06-08T17:53:38.962Z,77.50
2019-06-08T17:56:08.437Z,78.40
2019-06-08T17:58:37.769Z,75.20
2019-06-08T18:01:07.100Z,77.50
2019-06-08T18:03:38.401Z,76.80
2019-06-08T18:06:07.620Z,78.60
2019-06-08T18:08:40.539Z,79.50
2019-06-08T18:11:08.178Z,80.80
2019-06-08T18:13:40.494Z,79.80
2019-06-08T18:16:08.484Z,80.10
2019-06-08T18:18:40.122Z,80.80
2019-06-08T18:21:08.725Z,80.70
2019-06-08T18:23:40.353Z,81.00
2019-06-08T18:26:09.012Z,81.30
2019-06-08T18:28:39.670Z,81.40
2019-06-08T18:31:09.495Z,81.30
2019-06-08T18:33:40.990Z,81.20
2019-06-08T18:36:09.757Z,82.20
2019-06-08T18:38:41.014Z,83.00
2019-06-08T18:41:10.588Z,82.80
2019-06-08T18:43:41.557Z,83.50
2019-06-08T18:46:10.924Z,83.10
2019-06-08T18:48:42.113Z,83.10
2019-06-08T18:51:12.508Z,84.60
2019-06-08T18:54:02.995Z,84.60
2019-06-08T18:56:12.777Z,85.50
2019-06-08T18:58:42.203Z,85.20
2019-06-08T19:01:11.525Z,85.30
2019-06-08T19:03:44.776Z,85.40
2019-06-08T19:06:12.219Z,86.50
2019-06-08T19:08:43.445Z,86.40
2019-06-08T19:11:12.736Z,87.00
2019-06-08T19:13:42.400Z,87.30
2019-06-08T19:16:11.787Z,87.90
2019-06-08T19:18:46.031Z,88.20
2019-06-08T19:21:13.125Z,88.50
2019-06-08T19:23:43.707Z,89.10
2019-06-08T19:26:14.183Z,89.50
2019-06-08T19:28:47.633Z,89.30
2019-06-08T19:31:14.526Z,90.00
2019-06-08T19:33:43.772Z,90.20
2019-06-08T19:36:13.065Z,90.10
2019-06-08T19:38:42.753Z,90.50
2019-06-08T19:41:12.080Z,90.30
2019-06-08T19:43:42.107Z,90.60
2019-06-08T19:46:12.406Z,91.90
2019-06-08T19:48:44.048Z,92.20
2019-06-08T19:51:12.670Z,91.80
2019-06-08T19:53:45.769Z,92.50
2019-06-08T19:56:13.050Z,92.40
2019-06-08T19:58:56.062Z,92.30
2019-06-08T20:01:14.765Z,92.50
2019-06-08T20:03:44.775Z,92.60
2019-06-08T20:06:14.550Z,92.80
2019-06-08T20:08:45.098Z,92.70
2019-06-08T20:11:17.183Z,93.00
2019-06-08T20:13:49.957Z,93.60
2019-06-08T20:16:17.820Z,93.20
2019-06-08T20:18:48.609Z,93.20
2019-06-08T20:21:19.246Z,93.40
2019-06-08T20:23:50.814Z,93.30
2019-06-08T20:26:20.662Z,93.30
2019-06-08T20:28:52.930Z,93.60
2019-06-08T20:31:22.059Z,93.50
2019-06-08T20:33:53.769Z,93.30
2019-06-08T20:36:24.073Z,93.40
2019-06-08T20:38:54.008Z,93.80
2019-06-08T20:41:23.881Z,93.70
2019-06-08T20:43:53.820Z,93.50
2019-06-08T20:46:24.049Z,93.50
2019-06-08T20:48:53.778Z,93.50
2019-06-08T20:51:24.168Z,93.60
2019-06-08T20:53:54.092Z,93.60
2019-06-08T20:56:23.822Z,93.60
2019-06-08T20:58:54.042Z,93.70
2019-06-08T21:01:24.457Z,94.00
2019-06-08T21:03:56.951Z,94.50
2019-06-08T21:06:27.751Z,94.60
2019-06-08T21:08:57.625Z,94.90
2019-06-08T21:11:28.736Z,95.40
2019-06-08T21:13:58.340Z,95.50
2019-06-08T21:16:28.652Z,95.70
2019-06-08T21:18:58.438Z,95.50
2019-06-08T21:21:28.713Z,95.80
2019-06-08T21:24:00.898Z,95.80
2019-06-08T21:26:30.120Z,96.10
2019-06-08T21:29:00.561Z,96.10
2019-06-08T21:31:30.217Z,96.20
2019-06-08T21:34:00.959Z,96.40
2019-06-08T21:36:31.087Z,96.60
2019-06-08T21:39:02.611Z,96.90
2019-06-08T21:41:32.744Z,97.20
2019-06-08T21:44:02.580Z,97.60
2019-06-08T21:46:34.051Z,97.90
2019-06-08T21:49:03.783Z,98.30
2019-06-08T21:51:33.248Z,98.50
2019-06-08T21:54:03.219Z,98.60
2019-06-08T21:56:33.136Z,98.70
2019-06-08T21:59:03.043Z,99.10
2019-06-08T22:01:34.266Z,99.40
2019-06-08T22:04:04.000Z,99.80
2019-06-08T22:06:33.983Z,99.90
2019-06-08T22:09:07.075Z,99.90
2019-06-08T22:11:37.644Z,99.90
2019-06-08T22:14:07.766Z,99.90
2019-06-08T22:16:38.239Z,99.90
2019-06-08T22:19:08.196Z,99.90
2019-06-08T22:21:38.051Z,99.90
2019-06-08T22:24:08.078Z,99.90
2019-06-08T22:26:37.833Z,99.90
2019-06-08T22:29:07.973Z,99.90
2019-06-08T22:31:38.163Z,99.90
2019-06-08T22:34:08.071Z,99.90
2019-06-08T22:36:38.119Z,99.90
2019-06-08T22:39:08.814Z,99.90
2019-06-08T22:41:38.732Z,99.90
2019-06-08T22:44:08.511Z,99.90
2019-06-08T22:46:38.415Z,99.90
2019-06-08T22:49:08.235Z,99.90
2019-06-08T22:51:38.503Z,99.90
2019-06-08T22:54:08.329Z,99.90
2019-06-08T22:56:38.348Z,99.90
2019-06-08T22:59:09.277Z,99.90
2019-06-08T23:01:39.551Z,99.90
2019-06-08T23:04:09.205Z,99.90
2019-06-08T23:06:39.052Z,99.90
2019-06-08T23:09:09.660Z,99.90
2019-06-08T23:11:39.736Z,99.90
2019-06-08T23:14:13.181Z,99.90
2019-06-08T23:16:41.191Z,99.90
2019-06-08T23:19:11.054Z,99.90
2019-06-08T23:21:40.583Z,99.90
2019-06-08T23:24:10.352Z,99.90
2019-06-08T23:26:40.348Z,99.90
2019-06-08T23:29:10.176Z,99.90
2019-06-08T23:31:40.149Z,99.90
2019-06-08T23:34:11.538Z,99.90
2019-06-08T23:36:58.533Z,99.90
2019-06-08T23:39:13.070Z,99.90
2019-06-08T23:41:43.298Z,99.90
2019-06-08T23:44:13.030Z,99.90
2019-06-08T23:46:43.154Z,99.90
2019-06-08T23:49:13.094Z,99.90
2019-06-08T23:51:43.387Z,99.90
2019-06-08T23:54:13.103Z,99.90
2019-06-08T23:56:43.180Z,99.90
2019-06-08T23:59:12.960Z,99.90
